createdAt,value
2019-06-20T00:01:13.199Z,18.40
2019-06-20T00:03:41.981Z,18.40
2019-06-20T00:06:10.418Z,18.50
2019-06-20T00:08:38.930Z,18.60
2019-06-20T00:11:07.552Z,18.70
2019-06-20T00:13:35.995Z,18.80
2019-06-20T00:16:05.044Z,18.80
2019-06-20T00:18:33.491Z,18.90
2019-06-20T00:21:01.967Z,18.90
2019-06-20T00:23:30.511Z,19.00
2019-06-20T00:25:59.087Z,18.90
2019-06-20T00:28:27.531Z,18.90
2019-06-20T00:30:56.360Z,18.90
2019-06-20T00:33:24.786Z,18.90
2019-06-20T00:35:53.245Z,18.90
2019-06-20T00:38:21.704Z,18.80
2019-06-20T00:40:50.276Z,18.70
2019-06-20T00:43:18.782Z,18.70
2019-06-20T00:45:47.274Z,18.70
2019-06-20T00:48:15.722Z,18.70
2019-06-20T00:50:44.344Z,18.70
2019-06-20T00:53:12.893Z,18.70
2019-06-20T00:55:41.352Z,18.70
2019-06-20T00:58:09.898Z,18.70
2019-06-20T01:00:38.488Z,18.60
2019-06-20T01:03:07.041Z,18.50
2019-06-20T01:05:35.508Z,18.60
2019-06-20T01:08:04.255Z,18.40
2019-06-20T01:10:32.695Z,18.40
2019-06-20T01:13:01.166Z,18.40
2019-06-20T01:15:29.838Z,18.40
2019-06-20T01:17:58.312Z,18.50
2019-06-20T01:20:27.019Z,18.60
2019-06-20T01:22:55.623Z,18.60
2019-06-20T01:25:35.455Z,18.70
2019-06-20T01:28:04.010Z,18.60
2019-06-20T01:30:32.454Z,18.60
2019-06-20T01:33:01.035Z,18.60
2019-06-20T01:35:29.478Z,18.60
2019-06-20T01:37:57.961Z,18.50
2019-06-20T01:40:26.814Z,18.50
2019-06-20T01:42:55.339Z,18.60
2019-06-20T01:45:23.805Z,18.60
2019-06-20T01:47:52.424Z,18.60
2019-06-20T01:50:21.038Z,18.60
2019-06-20T01:52:49.605Z,18.60
2019-06-20T01:55:18.217Z,18.60
2019-06-20T01:57:46.677Z,18.60
2019-06-20T02:00:33.537Z,18.60
2019-06-20T02:03:02.069Z,18.50
2019-06-20T02:05:30.690Z,18.60
2019-06-20T02:07:59.271Z,18.50
2019-06-20T02:10:27.815Z,18.50
2019-06-20T02:12:56.384Z,18.40
2019-06-20T02:15:24.932Z,18.40
2019-06-20T02:17:53.378Z,18.40
2019-06-20T02:20:30.807Z,18.40
2019-06-20T02:22:59.440Z,18.40
2019-06-20T02:25:28.047Z,18.30
2019-06-20T02:27:56.627Z,18.20
2019-06-20T02:30:25.515Z,18.30
2019-06-20T02:32:53.988Z,18.20
2019-06-20T02:35:22.516Z,18.20
2019-06-20T02:37:50.961Z,18.00
2019-06-20T02:40:19.684Z,18.00
2019-06-20T02:42:48.282Z,18.00
2019-06-20T02:45:16.886Z,18.00
2019-06-20T02:47:45.420Z,18.00
2019-06-20T02:50:14.762Z,18.00
2019-06-20T02:52:43.375Z,18.00
2019-06-20T02:55:12.181Z,17.90
2019-06-20T02:57:40.891Z,17.90
2019-06-20T03:00:09.896Z,17.90
2019-06-20T03:02:38.335Z,17.90
2019-06-20T03:05:08.258Z,17.90
2019-06-20T03:07:36.856Z,17.80
2019-06-20T03:10:07.123Z,17.90
2019-06-20T03:12:35.557Z,17.90
2019-06-20T03:15:06.176Z,17.80
2019-06-20T03:17:34.621Z,17.80
2019-06-20T03:20:04.289Z,17.80
2019-06-20T03:22:32.718Z,17.80
2019-06-20T03:25:01.232Z,17.80
2019-06-20T03:27:29.701Z,17.90
2019-06-20T03:29:58.212Z,17.90
2019-06-20T03:32:26.687Z,17.80
2019-06-20T03:34:55.192Z,17.80
2019-06-20T03:37:23.717Z,17.80
2019-06-20T03:39:52.206Z,17.80
2019-06-20T03:42:20.720Z,17.90
2019-06-20T03:45:01.708Z,17.90
2019-06-20T03:47:19.413Z,18.00
2019-06-20T03:49:47.862Z,18.10
2019-06-20T03:52:16.331Z,18.20
2019-06-20T03:54:44.858Z,18.20
2019-06-20T03:57:13.332Z,18.30
2019-06-20T03:59:41.862Z,18.40
2019-06-20T04:02:10.375Z,18.40
2019-06-20T04:04:38.926Z,18.40
2019-06-20T04:07:07.438Z,18.50
2019-06-20T04:09:35.919Z,18.60
2019-06-20T04:12:04.450Z,18.70
2019-06-20T04:14:32.974Z,18.70
2019-06-20T04:17:01.425Z,18.80
2019-06-20T04:19:29.868Z,18.80
2019-06-20T04:21:58.345Z,18.90
2019-06-20T04:24:28.022Z,19.00
2019-06-20T04:26:56.815Z,19.00
2019-06-20T04:29:25.437Z,18.90
2019-06-20T04:31:53.960Z,18.90
2019-06-20T04:34:22.419Z,18.90
2019-06-20T04:36:51.126Z,18.90
2019-06-20T04:39:19.890Z,18.90
2019-06-20T04:41:48.551Z,19.00
2019-06-20T04:44:17.090Z,19.00
2019-06-20T04:46:50.352Z,19.00
2019-06-20T04:49:19.927Z,19.00
2019-06-20T04:51:48.433Z,18.80
2019-06-20T04:54:16.903Z,18.80
2019-06-20T04:56:45.483Z,18.90
2019-06-20T04:59:14.179Z,19.00
2019-06-20T05:01:42.692Z,19.10
2019-06-20T05:04:11.424Z,19.10
2019-06-20T05:06:41.925Z,19.20
2019-06-20T05:09:10.516Z,19.30
2019-06-20T05:11:39.011Z,19.30
2019-06-20T05:14:07.535Z,19.30
2019-06-20T05:16:35.993Z,19.40
2019-06-20T05:19:04.600Z,19.50
2019-06-20T05:21:33.103Z,19.50
2019-06-20T05:24:01.579Z,19.70
2019-06-20T05:26:30.023Z,19.70
2019-06-20T05:28:58.488Z,19.80
2019-06-20T05:31:26.943Z,19.80
2019-06-20T05:33:55.404Z,19.90
2019-06-20T05:36:23.878Z,20.00
2019-06-20T05:38:52.393Z,19.90
2019-06-20T05:41:20.863Z,20.00
2019-06-20T05:43:49.382Z,20.00
2019-06-20T05:46:17.912Z,20.10
2019-06-20T05:48:46.364Z,20.20
2019-06-20T05:51:14.828Z,20.20
2019-06-20T05:53:43.447Z,20.20
2019-06-20T05:56:12.010Z,20.10
2019-06-20T05:58:40.451Z,20.10
2019-06-20T06:01:09.202Z,20.10
2019-06-20T06:03:37.639Z,20.10
2019-06-20T06:06:06.265Z,20.20
2019-06-20T06:08:34.774Z,20.10
2019-06-20T06:11:04.906Z,20.20
2019-06-20T06:13:33.421Z,20.10
2019-06-20T06:16:01.890Z,20.30
2019-06-20T06:18:30.360Z,20.40
2019-06-20T06:20:58.872Z,20.60
2019-06-20T06:23:27.331Z,20.70
2019-06-20T06:25:57.518Z,20.80
2019-06-20T06:28:25.966Z,20.90
2019-06-20T06:30:54.403Z,21.20
2019-06-20T06:33:22.868Z,21.40
2019-06-20T06:35:51.383Z,21.40
2019-06-20T06:38:22.184Z,21.50
2019-06-20T06:40:50.019Z,21.40
2019-06-20T06:43:18.517Z,21.40
2019-06-20T06:45:46.948Z,21.40
2019-06-20T06:48:15.516Z,21.50
2019-06-20T06:50:44.074Z,21.70
2019-06-20T06:53:12.540Z,21.70
2019-06-20T06:55:41.174Z,21.80
2019-06-20T06:58:09.726Z,21.80
2019-06-20T07:00:38.223Z,22.00
2019-06-20T07:03:06.761Z,22.00
2019-06-20T07:05:35.276Z,22.00
2019-06-20T07:08:03.827Z,22.10
2019-06-20T07:10:32.344Z,22.10
2019-06-20T07:13:01.657Z,22.30
2019-06-20T07:15:30.254Z,22.40
2019-06-20T07:17:58.795Z,22.40
2019-06-20T07:20:27.384Z,22.50
2019-06-20T07:22:55.921Z,22.60
2019-06-20T07:25:24.392Z,22.80
2019-06-20T07:27:52.838Z,22.90
2019-06-20T07:30:22.006Z,23.10
2019-06-20T07:32:50.696Z,23.20
2019-06-20T07:35:19.288Z,23.30
2019-06-20T07:37:48.053Z,23.50
2019-06-20T07:40:35.920Z,23.50
2019-06-20T07:43:04.501Z,23.50
2019-06-20T07:45:33.295Z,23.70
2019-06-20T07:48:01.817Z,23.70
2019-06-20T07:50:32.038Z,23.90
2019-06-20T07:53:02.505Z,23.90
2019-06-20T07:55:30.757Z,23.90
2019-06-20T07:57:59.363Z,24.10
2019-06-20T08:00:28.011Z,24.20
2019-06-20T08:02:56.642Z,24.30
2019-06-20T08:05:25.270Z,24.40
2019-06-20T08:07:59.400Z,24.40
2019-06-20T08:10:29.426Z,24.60
2019-06-20T08:12:58.071Z,24.60
2019-06-20T08:15:26.857Z,24.70
2019-06-20T08:17:55.608Z,24.90
2019-06-20T08:20:26.099Z,24.70
2019-06-20T08:22:54.589Z,24.90
2019-06-20T08:25:23.351Z,25.00
2019-06-20T08:27:52.686Z,24.90
2019-06-20T08:30:26.289Z,24.90
2019-06-20T08:32:57.394Z,24.70
2019-06-20T08:35:28.861Z,24.80
2019-06-20T08:37:59.263Z,24.50
2019-06-20T08:40:30.831Z,24.60
2019-06-20T08:43:02.131Z,24.70
2019-06-20T08:45:32.949Z,24.70
2019-06-20T08:48:02.603Z,24.80
2019-06-20T08:50:31.991Z,24.90
2019-06-20T08:53:06.192Z,25.30
2019-06-20T08:55:36.042Z,25.60
2019-06-20T08:58:05.642Z,25.90
2019-06-20T09:00:36.350Z,25.70
2019-06-20T09:03:06.554Z,25.60
2019-06-20T09:05:35.472Z,25.60
2019-06-20T09:08:06.146Z,25.30
2019-06-20T09:10:38.133Z,25.50
2019-06-20T09:13:07.402Z,25.60
2019-06-20T09:15:36.088Z,25.70
2019-06-20T09:18:04.820Z,25.90
2019-06-20T09:20:33.580Z,26.00
2019-06-20T09:23:03.295Z,26.50
2019-06-20T09:25:32.084Z,26.70
2019-06-20T09:28:00.987Z,26.80
2019-06-20T09:30:29.882Z,27.00
2019-06-20T09:32:59.842Z,27.10
2019-06-20T09:35:28.667Z,27.40
2019-06-20T09:37:57.597Z,27.30
2019-06-20T09:40:27.513Z,27.00
2019-06-20T09:42:56.454Z,27.10
2019-06-20T09:45:26.307Z,27.00
2019-06-20T09:47:55.920Z,26.90
2019-06-20T09:50:25.485Z,26.70
2019-06-20T09:52:54.922Z,26.60
2019-06-20T09:55:24.706Z,26.50
2019-06-20T09:57:53.736Z,26.40
2019-06-20T10:00:25.321Z,26.40
2019-06-20T10:02:55.696Z,26.50
2019-06-20T10:05:24.315Z,26.30
2019-06-20T10:07:54.542Z,26.30
2019-06-20T10:10:28.742Z,26.10
2019-06-20T10:12:57.835Z,26.50
2019-06-20T10:15:28.413Z,26.70
2019-06-20T10:17:56.375Z,26.70
2019-06-20T10:20:25.576Z,26.70
2019-06-20T10:22:54.294Z,26.50
2019-06-20T10:25:22.844Z,26.70
2019-06-20T10:27:51.495Z,26.30
2019-06-20T10:30:22.378Z,26.40
2019-06-20T10:32:51.052Z,26.30
2019-06-20T10:35:20.742Z,26.00
2019-06-20T10:37:50.350Z,25.90
2019-06-20T10:40:20.340Z,26.00
2019-06-20T10:42:50.145Z,25.90
2019-06-20T10:45:21.432Z,25.50
2019-06-20T10:47:50.932Z,25.40
2019-06-20T10:50:20.964Z,25.20
2019-06-20T10:52:50.110Z,25.00
2019-06-20T10:55:19.553Z,24.90
2019-06-20T10:57:49.766Z,24.70
2019-06-20T11:00:30.246Z,24.40
2019-06-20T11:02:49.513Z,24.20
2019-06-20T11:05:18.272Z,23.90
2019-06-20T11:07:47.626Z,23.70
2019-06-20T11:10:17.097Z,23.40
2019-06-20T11:12:53.033Z,23.20
2019-06-20T11:15:16.868Z,23.00
2019-06-20T11:17:46.272Z,23.10
2019-06-20T11:20:15.678Z,22.90
2019-06-20T11:22:45.301Z,22.70
2019-06-20T11:25:14.344Z,22.60
2019-06-20T11:27:42.875Z,22.60
2019-06-20T11:30:17.299Z,22.50
2019-06-20T11:32:45.900Z,22.50
2019-06-20T11:35:14.758Z,22.50
2019-06-20T11:37:44.460Z,22.60
2019-06-20T11:40:14.072Z,22.70
2019-06-20T11:42:42.625Z,22.90
2019-06-20T11:45:12.018Z,22.90
2019-06-20T11:47:40.703Z,23.00
2019-06-20T11:50:10.986Z,23.10
2019-06-20T11:52:42.631Z,23.20
2019-06-20T11:55:09.778Z,23.20
2019-06-20T11:57:38.256Z,23.20
2019-06-20T12:00:08.436Z,23.20
2019-06-20T12:02:36.942Z,23.30
2019-06-20T12:05:08.223Z,23.20
2019-06-20T12:07:36.726Z,23.00
2019-06-20T12:10:06.886Z,23.00
2019-06-20T12:12:35.470Z,23.00
2019-06-20T12:15:07.657Z,23.00
2019-06-20T12:17:38.128Z,23.00
2019-06-20T12:20:07.771Z,23.00
2019-06-20T12:22:36.503Z,23.00
2019-06-20T12:25:07.180Z,23.10
2019-06-20T12:27:35.784Z,23.20
2019-06-20T12:30:08.992Z,23.20
2019-06-20T12:32:37.457Z,23.10
2019-06-20T12:35:06.629Z,23.00
2019-06-20T12:37:35.212Z,23.00
2019-06-20T12:40:05.510Z,22.90
2019-06-20T12:42:33.946Z,22.90
2019-06-20T12:45:02.562Z,22.90
2019-06-20T12:47:31.098Z,23.00
2019-06-20T12:49:59.717Z,23.00
2019-06-20T12:52:28.290Z,23.20
2019-06-20T12:54:56.841Z,23.30
2019-06-20T12:57:26.239Z,23.50
2019-06-20T12:59:55.123Z,23.60
2019-06-20T13:02:24.394Z,23.70
2019-06-20T13:04:52.830Z,23.70
2019-06-20T13:07:22.850Z,23.80
2019-06-20T13:09:51.530Z,23.80
2019-06-20T13:12:20.110Z,23.80
2019-06-20T13:14:49.634Z,23.70
2019-06-20T13:17:18.795Z,23.90
2019-06-20T13:19:48.487Z,23.90
2019-06-20T13:22:17.431Z,23.80
2019-06-20T13:24:47.142Z,23.80
2019-06-20T13:27:15.738Z,23.70
2019-06-20T13:29:45.263Z,23.70
2019-06-20T13:32:13.938Z,23.60
2019-06-20T13:34:42.937Z,23.40
2019-06-20T13:37:11.681Z,23.50
2019-06-20T13:39:41.594Z,23.50
2019-06-20T13:42:10.422Z,23.50
2019-06-20T13:44:39.632Z,23.40
2019-06-20T13:47:09.319Z,23.30
2019-06-20T13:49:39.735Z,23.30
2019-06-20T13:52:08.147Z,23.20
2019-06-20T13:54:36.967Z,23.20
2019-06-20T13:57:05.479Z,23.10
2019-06-20T13:59:33.945Z,23.10
2019-06-20T14:02:06.790Z,23.10
2019-06-20T14:04:32.868Z,23.10
2019-06-20T14:07:01.489Z,23.10
2019-06-20T14:09:29.974Z,23.00
2019-06-20T14:11:58.559Z,23.00
2019-06-20T14:14:27.146Z,23.00
2019-06-20T14:16:55.593Z,22.90
2019-06-20T14:19:24.205Z,22.80
2019-06-20T14:21:54.245Z,22.70
2019-06-20T14:24:22.802Z,22.60
2019-06-20T14:26:51.330Z,22.60
2019-06-20T14:29:20.124Z,22.60
2019-06-20T14:31:49.236Z,22.50
2019-06-20T14:34:17.975Z,22.40
2019-06-20T14:36:48.239Z,22.40
2019-06-20T14:39:16.718Z,22.40
2019-06-20T14:41:46.345Z,22.30
2019-06-20T14:44:15.075Z,22.40
2019-06-20T14:46:43.583Z,22.50
2019-06-20T14:49:12.039Z,22.70
2019-06-20T14:51:40.609Z,22.90
2019-06-20T14:54:09.134Z,23.20
2019-06-20T14:56:37.606Z,23.40
2019-06-20T14:59:06.147Z,23.40
2019-06-20T15:01:34.716Z,23.60
2019-06-20T15:04:04.493Z,23.70
2019-06-20T15:06:33.281Z,23.90
2019-06-20T15:09:05.802Z,24.30
2019-06-20T15:11:32.187Z,24.50
2019-06-20T15:14:00.714Z,24.80
2019-06-20T15:16:29.288Z,25.00
2019-06-20T15:18:57.739Z,25.00
2019-06-20T15:21:26.276Z,24.90
2019-06-20T15:23:54.727Z,25.00
2019-06-20T15:26:23.184Z,24.90
2019-06-20T15:28:53.409Z,24.90
2019-06-20T15:31:21.800Z,25.10
2019-06-20T15:33:51.600Z,25.40
2019-06-20T15:36:20.652Z,25.50
2019-06-20T15:38:49.429Z,25.80
2019-06-20T15:41:18.455Z,25.90
2019-06-20T15:43:48.177Z,25.80
2019-06-20T15:46:17.350Z,25.80
2019-06-20T15:48:45.875Z,25.80
2019-06-20T15:51:14.343Z,26.00
2019-06-20T15:53:43.216Z,26.10
2019-06-20T15:56:11.733Z,26.10
2019-06-20T15:58:40.180Z,26.10
2019-06-20T16:01:08.727Z,26.20
2019-06-20T16:03:37.280Z,26.20
2019-06-20T16:06:06.120Z,26.20
2019-06-20T16:08:34.719Z,26.30
2019-06-20T16:11:03.167Z,26.20
2019-06-20T16:13:31.694Z,26.50
2019-06-20T16:16:00.155Z,26.40
2019-06-20T16:18:28.688Z,26.50
2019-06-20T16:20:57.131Z,26.40
2019-06-20T16:23:25.650Z,26.40
2019-06-20T16:25:54.097Z,26.60
2019-06-20T16:28:22.561Z,26.50
2019-06-20T16:31:07.941Z,26.60
2019-06-20T16:33:25.524Z,26.70
2019-06-20T16:35:53.481Z,26.80
2019-06-20T16:38:22.467Z,26.80
2019-06-20T16:40:50.994Z,26.80
2019-06-20T16:43:20.010Z,26.70
2019-06-20T16:45:48.519Z,26.80
2019-06-20T16:48:17.212Z,26.80
2019-06-20T16:50:45.859Z,26.90
2019-06-20T16:53:14.414Z,26.90
2019-06-20T16:55:43.048Z,26.60
2019-06-20T16:58:11.538Z,26.30
2019-06-20T17:00:40.096Z,26.00
2019-06-20T17:03:10.052Z,25.80
2019-06-20T17:05:38.655Z,25.80
2019-06-20T17:08:09.087Z,25.90
2019-06-20T17:10:37.608Z,26.20
2019-06-20T17:13:06.176Z,26.30
2019-06-20T17:15:34.682Z,26.50
2019-06-20T17:18:03.214Z,26.60
2019-06-20T17:20:31.834Z,26.70
2019-06-20T17:23:00.641Z,26.70
2019-06-20T17:25:37.607Z,26.70
2019-06-20T17:28:21.797Z,26.70
2019-06-20T17:30:50.345Z,26.80
2019-06-20T17:33:19.119Z,26.80
2019-06-20T17:35:47.981Z,26.50
2019-06-20T17:38:16.476Z,26.50
2019-06-20T17:40:45.419Z,26.50
2019-06-20T17:43:16.799Z,26.60
2019-06-20T17:45:45.446Z,26.60
2019-06-20T17:48:13.946Z,26.60
2019-06-20T17:50:42.694Z,26.70
2019-06-20T17:53:11.515Z,26.70
2019-06-20T17:55:40.067Z,26.80
2019-06-20T17:58:10.429Z,27.00
2019-06-20T18:00:39.263Z,27.10
2019-06-20T18:03:07.863Z,27.10
2019-06-20T18:05:36.497Z,27.30
2019-06-20T18:08:14.559Z,27.40
2019-06-20T18:10:35.716Z,27.20
2019-06-20T18:13:04.652Z,27.30
2019-06-20T18:15:34.081Z,27.20
2019-06-20T18:18:02.753Z,27.20
2019-06-20T18:20:31.437Z,27.20
2019-06-20T18:23:00.219Z,27.20
2019-06-20T18:25:31.648Z,27.20
2019-06-20T18:27:59.139Z,27.10
2019-06-20T18:30:45.020Z,27.10
2019-06-20T18:33:13.799Z,27.10
2019-06-20T18:35:42.434Z,26.90
2019-06-20T18:38:10.880Z,26.70
2019-06-20T18:40:39.546Z,26.40
2019-06-20T18:43:08.789Z,26.50
2019-06-20T18:45:37.336Z,26.60
2019-06-20T18:48:06.121Z,26.80
2019-06-20T18:50:34.656Z,26.80
2019-06-20T18:53:03.277Z,26.80
2019-06-20T18:55:32.235Z,27.00
2019-06-20T18:58:01.164Z,26.80
2019-06-20T19:00:34.666Z,26.50
2019-06-20T19:03:00.177Z,26.30
2019-06-20T19:05:28.772Z,26.10
2019-06-20T19:07:57.433Z,25.70
2019-06-20T19:10:26.090Z,25.20
2019-06-20T19:12:56.303Z,24.80
2019-06-20T19:15:26.845Z,24.60
2019-06-20T19:17:55.969Z,24.30
2019-06-20T19:20:25.492Z,24.00
2019-06-20T19:22:54.312Z,23.90
2019-06-20T19:25:23.256Z,23.60
2019-06-20T19:27:52.242Z,23.50
2019-06-20T19:30:25.027Z,23.30
2019-06-20T19:32:53.550Z,23.20
2019-06-20T19:35:22.185Z,23.20
2019-06-20T19:37:50.911Z,23.30
2019-06-20T19:40:20.606Z,23.20
2019-06-20T19:42:49.423Z,23.10
2019-06-20T19:45:18.189Z,23.10
2019-06-20T19:47:46.873Z,23.00
2019-06-20T19:50:16.319Z,23.00
2019-06-20T19:52:44.815Z,23.00
2019-06-20T19:55:13.687Z,22.90
2019-06-20T19:57:42.444Z,22.80
2019-06-20T20:00:12.452Z,22.80
2019-06-20T20:02:41.019Z,22.80
2019-06-20T20:05:18.991Z,22.70
2019-06-20T20:07:40.433Z,22.60
2019-06-20T20:10:10.139Z,22.50
2019-06-20T20:12:38.806Z,22.40
2019-06-20T20:15:08.653Z,22.20
2019-06-20T20:17:37.361Z,22.10
2019-06-20T20:20:07.795Z,22.10
2019-06-20T20:22:36.226Z,22.10
2019-06-20T20:25:08.548Z,21.90
2019-06-20T20:27:37.136Z,21.90
2019-06-20T20:30:08.588Z,21.90
2019-06-20T20:32:38.300Z,21.70
2019-06-20T20:35:06.935Z,21.60
2019-06-20T20:37:36.477Z,21.50
2019-06-20T20:40:09.568Z,21.40
2019-06-20T20:42:38.135Z,21.40
2019-06-20T20:45:07.661Z,21.40
2019-06-20T20:47:36.456Z,21.40
2019-06-20T20:50:09.059Z,21.40
2019-06-20T20:52:38.003Z,21.40
2019-06-20T20:55:09.112Z,21.40
2019-06-20T20:57:37.622Z,21.30
2019-06-20T21:00:21.146Z,21.30
2019-06-20T21:02:50.075Z,21.20
2019-06-20T21:05:18.627Z,21.20
2019-06-20T21:07:47.145Z,21.10
2019-06-20T21:10:16.943Z,21.00
2019-06-20T21:12:45.808Z,21.00
2019-06-20T21:15:14.667Z,20.80
2019-06-20T21:17:43.302Z,20.80
2019-06-20T21:20:13.204Z,20.80
2019-06-20T21:22:41.818Z,20.70
2019-06-20T21:25:10.625Z,20.70
2019-06-20T21:27:39.205Z,20.70
2019-06-20T21:30:09.221Z,20.80
2019-06-20T21:32:37.775Z,20.80
2019-06-20T21:35:09.790Z,20.80
2019-06-20T21:37:38.446Z,20.80
2019-06-20T21:40:07.255Z,20.80
2019-06-20T21:42:35.833Z,20.80
2019-06-20T21:45:06.686Z,20.80
2019-06-20T21:47:34.438Z,20.70
2019-06-20T21:50:03.872Z,20.80
2019-06-20T21:52:32.394Z,20.70
2019-06-20T21:55:01.026Z,20.70
2019-06-20T21:57:29.963Z,20.70
2019-06-20T21:59:58.483Z,20.70
2019-06-20T22:02:27.048Z,20.70
2019-06-20T22:04:55.567Z,20.70
2019-06-20T22:07:24.415Z,20.70
2019-06-20T22:09:53.020Z,20.70
2019-06-20T22:12:21.631Z,20.70
2019-06-20T22:14:50.144Z,20.60
2019-06-20T22:17:18.711Z,20.50
2019-06-20T22:19:47.391Z,20.50
2019-06-20T22:22:15.934Z,20.50
2019-06-20T22:24:44.459Z,20.50
2019-06-20T22:27:18.566Z,20.40
2019-06-20T22:29:47.133Z,20.40
2019-06-20T22:32:15.868Z,20.40
2019-06-20T22:34:44.543Z,20.30
2019-06-20T22:37:12.985Z,20.30
2019-06-20T22:39:41.648Z,20.20
2019-06-20T22:42:10.124Z,20.20
2019-06-20T22:44:38.642Z,20.20
2019-06-20T22:47:07.137Z,20.20
2019-06-20T22:49:35.767Z,20.10
2019-06-20T22:52:04.384Z,20.20
2019-06-20T22:54:32.869Z,20.10
2019-06-20T22:57:01.433Z,20.20
2019-06-20T22:59:29.917Z,20.20
2019-06-20T23:01:58.450Z,20.10
2019-06-20T23:04:26.936Z,20.10
2019-06-20T23:06:56.941Z,20.20
2019-06-20T23:09:31.493Z,20.20
2019-06-20T23:12:01.590Z,20.20
2019-06-20T23:14:30.076Z,20.20
2019-06-20T23:16:58.971Z,20.20
2019-06-20T23:19:27.545Z,20.10
2019-06-20T23:21:56.441Z,20.10
2019-06-20T23:24:25.280Z,20.10
2019-06-20T23:26:54.038Z,20.00
2019-06-20T23:29:22.573Z,20.00
2019-06-20T23:31:53.021Z,19.90
2019-06-20T23:34:21.899Z,19.90
2019-06-20T23:36:50.813Z,19.90
2019-06-20T23:39:19.529Z,19.80
2019-06-20T23:41:48.215Z,19.80
2019-06-20T23:44:16.726Z,19.80
2019-06-20T23:46:49.110Z,19.80
2019-06-20T23:49:17.723Z,19.80
2019-06-20T23:51:50.355Z,19.80
2019-06-20T23:54:20.430Z,19.70
2019-06-20T23:56:48.960Z,19.60
2019-06-20T23:59:17.429Z,19.60
